createdAt,value
2017-01-21T00:01:45.953Z,3.42
2017-01-21T00:02:45.973Z,3.42
2017-01-21T00:03:45.989Z,3.48
2017-01-21T00:04:46.010Z,3.5
2017-01-21T00:06:00.937Z,3.55
2017-01-21T00:06:46.038Z,3.61
2017-01-21T00:08:00.983Z,3.57
2017-01-21T00:08:46.069Z,3.6
2017-01-21T00:10:01.005Z,3.48
2017-01-21T00:10:46.102Z,3.51
2017-01-21T00:11:46.118Z,3.48
2017-01-21T00:12:46.136Z,3.47
2017-01-21T00:13:46.149Z,3.47
2017-01-21T00:14:46.165Z,3.5
2017-01-21T00:15:46.184Z,3.52
2017-01-21T00:16:46.206Z,3.51
2017-01-21T00:18:46.237Z,3.45
2017-01-21T00:19:46.256Z,3.4
2017-01-21T00:21:01.181Z,3.36
2017-01-21T00:21:46.282Z,3.39
2017-01-21T00:22:46.298Z,3.51
2017-01-21T00:23:46.314Z,3.51
2017-01-21T00:24:46.333Z,3.57
2017-01-21T00:26:01.264Z,3.5
2017-01-21T00:26:46.361Z,3.57
2017-01-21T00:27:46.379Z,3.55
2017-01-21T00:28:46.392Z,3.55
2017-01-21T00:30:46.458Z,3.51
2017-01-21T00:31:46.441Z,3.52
2017-01-21T00:33:46.476Z,3.58
2017-01-21T00:34:46.513Z,3.57
2017-01-21T00:35:46.512Z,3.57
2017-01-21T00:37:01.443Z,3.54
2017-01-21T00:37:46.543Z,3.6
2017-01-21T00:38:46.555Z,3.6
2017-01-21T00:39:46.574Z,3.47
2017-01-21T00:40:46.588Z,3.54
2017-01-21T00:42:01.523Z,3.52
2017-01-21T00:42:46.655Z,3.55
2017-01-21T00:43:46.637Z,3.48
2017-01-21T00:44:46.653Z,3.47
2017-01-21T00:45:46.671Z,3.54
2017-01-21T00:46:46.712Z,3.48
2017-01-21T00:48:46.718Z,3.5
2017-01-21T00:49:46.737Z,3.51
2017-01-21T00:50:46.751Z,3.43
2017-01-21T00:51:46.768Z,3.48
2017-01-21T00:52:46.781Z,3.47
2017-01-21T00:54:01.717Z,3.52
2017-01-21T00:54:46.814Z,3.5
2017-01-21T00:55:46.837Z,3.48
2017-01-21T00:56:46.847Z,3.48
2017-01-21T00:58:01.783Z,3.51
2017-01-21T00:58:46.879Z,3.52
2017-01-21T00:59:46.895Z,3.42
2017-01-21T01:00:46.912Z,3.36
2017-01-21T01:01:46.929Z,3.43
2017-01-21T01:04:46.978Z,3.45
2017-01-21T01:05:46.993Z,3.48
2017-01-21T01:06:47.009Z,3.47
2017-01-21T01:07:47.027Z,3.42
2017-01-21T01:08:47.080Z,3.51
2017-01-21T01:09:47.059Z,3.54
2017-01-21T01:10:47.076Z,3.5
2017-01-21T01:11:47.095Z,3.51
2017-01-21T01:13:02.027Z,3.51
2017-01-21T01:13:47.125Z,3.5
2017-01-21T01:14:47.142Z,3.54
2017-01-21T01:15:47.160Z,3.61
2017-01-21T01:17:47.192Z,3.48
2017-01-21T01:18:47.205Z,3.52
2017-01-21T01:19:47.231Z,3.51
2017-01-21T01:20:47.238Z,3.55
2017-01-21T01:21:47.262Z,3.54
2017-01-21T01:23:02.189Z,3.52
2017-01-21T01:23:47.293Z,3.55
2017-01-21T01:24:47.301Z,3.55
2017-01-21T01:25:47.321Z,3.51
2017-01-21T01:26:47.336Z,3.4
2017-01-21T01:27:47.367Z,3.48
2017-01-21T01:28:47.368Z,3.5
2017-01-21T01:29:47.384Z,3.47
2017-01-21T01:31:47.418Z,3.45
2017-01-21T01:32:47.441Z,3.43
2017-01-21T01:33:47.455Z,3.51
2017-01-21T01:34:47.467Z,3.4
2017-01-21T01:35:47.483Z,3.45
2017-01-21T01:36:47.497Z,3.45
2017-01-21T01:37:47.514Z,3.45
2017-01-21T01:39:02.450Z,3.39
2017-01-21T01:39:47.549Z,3.48
2017-01-21T01:40:47.589Z,3.52
2017-01-21T01:41:47.578Z,3.5
2017-01-21T01:42:47.596Z,3.5
2017-01-21T01:43:47.611Z,3.55
2017-01-21T01:45:02.548Z,3.62
2017-01-21T01:45:47.651Z,3.52
2017-01-21T01:46:47.661Z,3.55
2017-01-21T01:47:47.689Z,3.54
2017-01-21T01:49:47.751Z,3.45
2017-01-21T01:51:47.740Z,3.48
2017-01-21T01:52:47.759Z,3.48
2017-01-21T01:53:47.774Z,3.5
2017-01-21T01:54:47.819Z,3.52
2017-01-21T01:55:47.811Z,3.33
2017-01-21T01:56:47.822Z,3.48
2017-01-21T01:57:47.841Z,3.43
2017-01-21T01:58:47.858Z,3.45
2017-01-21T01:59:47.872Z,3.5
2017-01-21T02:01:02.805Z,3.45
2017-01-21T02:01:47.905Z,3.45
2017-01-21T02:02:47.919Z,3.43
2017-01-21T02:03:47.936Z,3.42
2017-01-21T02:04:47.976Z,3.5
2017-01-21T02:05:47.972Z,3.43
2017-01-21T02:06:47.988Z,3.45
2017-01-21T02:07:48.006Z,3.51
2017-01-21T02:08:48.020Z,3.55
2017-01-21T02:09:48.034Z,3.62
2017-01-21T02:10:48.058Z,3.6
2017-01-21T02:11:48.464Z,3.61
2017-01-21T02:12:48.083Z,3.61
2017-01-21T02:13:48.100Z,3.5
2017-01-21T02:14:48.117Z,3.48
2017-01-21T02:15:48.134Z,3.62
2017-01-21T02:17:03.067Z,3.55
2017-01-21T02:17:48.171Z,3.54
2017-01-21T02:18:48.184Z,3.52
2017-01-21T02:19:48.199Z,3.6
2017-01-21T02:20:48.258Z,3.66
2017-01-21T02:21:48.232Z,3.61
2017-01-21T02:22:48.246Z,3.66
2017-01-21T02:24:48.279Z,3.68
2017-01-21T02:25:48.299Z,3.65
2017-01-21T02:27:03.231Z,3.62
2017-01-21T02:27:48.331Z,3.62
2017-01-21T02:28:48.344Z,3.52
2017-01-21T02:29:48.362Z,3.6
2017-01-21T02:30:48.380Z,3.68
2017-01-21T02:31:48.393Z,3.61
2017-01-21T02:33:03.329Z,3.66
2017-01-21T02:33:48.431Z,3.61
2017-01-21T02:34:48.447Z,3.6
2017-01-21T02:35:48.459Z,3.57
2017-01-21T02:36:48.475Z,3.65
2017-01-21T02:40:48.543Z,3.5
2017-01-21T02:41:48.560Z,3.65
2017-01-21T02:42:48.573Z,3.61
2017-01-21T02:44:03.509Z,3.68
2017-01-21T02:44:48.636Z,3.61
2017-01-21T02:45:48.625Z,3.66
2017-01-21T02:46:48.640Z,3.58
2017-01-21T02:48:03.579Z,3.55
2017-01-21T02:48:48.674Z,3.62
2017-01-21T02:49:48.692Z,3.58
2017-01-21T02:50:48.711Z,3.55
2017-01-21T02:51:48.724Z,3.55
2017-01-21T02:52:48.741Z,3.6
2017-01-21T02:53:48.755Z,3.61
2017-01-21T02:54:48.774Z,3.57
2017-01-21T02:55:48.788Z,3.57
2017-01-21T02:56:48.803Z,3.55
2017-01-21T02:58:03.740Z,3.61
2017-01-21T02:58:48.836Z,3.61
2017-01-21T02:59:48.852Z,3.55
2017-01-21T03:00:48.872Z,3.65
2017-01-21T03:01:48.885Z,3.61
2017-01-21T03:02:48.903Z,3.66
2017-01-21T03:03:48.923Z,3.65
2017-01-21T03:04:48.933Z,3.62
2017-01-21T03:05:48.954Z,3.66
2017-01-21T03:06:48.969Z,3.62
2017-01-21T03:07:48.986Z,3.6
2017-01-21T03:08:49.000Z,3.66
2017-01-21T03:10:49.037Z,3.66
2017-01-21T03:11:49.049Z,3.6
2017-01-21T03:12:49.066Z,3.6
2017-01-21T03:13:49.083Z,3.62
2017-01-21T03:14:49.098Z,3.66
2017-01-21T03:16:04.033Z,3.6
2017-01-21T03:16:49.139Z,3.73
2017-01-21T03:17:49.148Z,3.65
2017-01-21T03:18:49.164Z,3.52
2017-01-21T03:20:49.200Z,3.76
2017-01-21T03:21:49.217Z,3.69
2017-01-21T03:22:49.228Z,3.72
2017-01-21T03:23:49.247Z,3.62
2017-01-21T03:26:49.297Z,3.68
2017-01-21T03:27:49.311Z,3.66
2017-01-21T03:29:04.248Z,3.66
2017-01-21T03:29:49.343Z,3.66
2017-01-21T03:31:04.278Z,3.62
2017-01-21T03:31:49.384Z,3.55
2017-01-21T03:32:49.395Z,3.55
2017-01-21T03:33:49.409Z,3.6
2017-01-21T03:34:49.425Z,3.57
2017-01-21T03:36:04.362Z,3.62
2017-01-21T03:36:49.458Z,3.58
2017-01-21T03:37:49.499Z,3.55
2017-01-21T03:38:49.491Z,3.57
2017-01-21T03:39:49.510Z,3.62
2017-01-21T03:40:49.525Z,3.58
2017-01-21T03:42:49.560Z,3.66
2017-01-21T03:45:49.612Z,3.69
2017-01-21T03:47:04.540Z,3.76
2017-01-21T03:47:49.640Z,3.73
2017-01-21T03:49:04.571Z,3.73
2017-01-21T03:49:49.671Z,3.83
2017-01-21T03:50:49.684Z,3.75
2017-01-21T03:52:04.621Z,3.69
2017-01-21T03:52:49.719Z,3.75
2017-01-21T03:53:49.742Z,3.66
2017-01-21T03:54:49.766Z,3.79
2017-01-21T03:55:49.768Z,3.66
2017-01-21T03:56:49.789Z,3.73
2017-01-21T03:57:49.803Z,3.7
2017-01-21T03:58:49.820Z,3.76
2017-01-21T03:59:49.834Z,3.75
2017-01-21T04:00:49.849Z,3.79
2017-01-21T04:01:49.866Z,3.8
2017-01-21T04:02:49.882Z,3.72
2017-01-21T04:03:49.903Z,3.8
2017-01-21T04:04:49.915Z,3.8
2017-01-21T04:05:49.931Z,3.78
2017-01-21T04:06:49.951Z,3.79
2017-01-21T04:08:04.882Z,3.78
2017-01-21T04:08:49.980Z,3.8
2017-01-21T04:09:49.997Z,3.7
2017-01-21T04:10:50.013Z,3.84
2017-01-21T04:11:50.034Z,3.87
2017-01-21T04:13:50.061Z,3.7
2017-01-21T04:14:50.078Z,3.72
2017-01-21T04:16:50.411Z,3.76
2017-01-21T04:17:50.125Z,3.68
2017-01-21T04:19:05.062Z,3.68
2017-01-21T04:19:50.162Z,3.8
2017-01-21T04:20:50.175Z,3.78
2017-01-21T04:21:50.192Z,3.75
2017-01-21T04:23:05.129Z,3.86
2017-01-21T04:23:50.237Z,3.73
2017-01-21T04:24:50.242Z,3.8
2017-01-21T04:25:50.257Z,3.86
2017-01-21T04:26:50.280Z,3.84
2017-01-21T04:28:50.307Z,3.75
2017-01-21T04:30:50.342Z,3.83
2017-01-21T04:31:50.356Z,3.84
2017-01-21T04:32:50.376Z,3.79
2017-01-21T04:34:05.310Z,3.8
2017-01-21T04:34:50.408Z,3.78
2017-01-21T04:35:50.423Z,3.79
2017-01-21T04:36:50.438Z,3.79
2017-01-21T04:37:50.455Z,3.84
2017-01-21T04:38:50.470Z,3.83
2017-01-21T04:39:50.490Z,3.83
2017-01-21T04:40:50.505Z,3.8
2017-01-21T04:41:50.520Z,3.88
2017-01-21T04:42:50.536Z,3.88
2017-01-21T04:43:50.552Z,3.88
2017-01-21T04:44:50.568Z,3.83
2017-01-21T04:45:50.587Z,3.78
2017-01-21T04:47:50.617Z,3.84
2017-01-21T04:48:50.638Z,3.79
2017-01-21T04:49:50.655Z,3.88
2017-01-21T04:50:50.667Z,3.87
2017-01-21T04:51:50.686Z,3.8
2017-01-21T04:52:50.701Z,3.73
2017-01-21T04:53:50.715Z,3.84
2017-01-21T04:55:05.655Z,3.79
2017-01-21T04:55:50.747Z,3.83
2017-01-21T04:56:50.767Z,3.88
2017-01-21T04:57:50.787Z,3.79
2017-01-21T04:58:50.797Z,3.8
2017-01-21T04:59:50.813Z,3.79
2017-01-21T05:01:50.847Z,3.83
2017-01-21T05:02:50.865Z,3.83
2017-01-21T05:03:50.878Z,3.87
2017-01-21T05:04:50.894Z,3.88
2017-01-21T05:05:50.914Z,3.91
2017-01-21T05:06:50.927Z,3.94
2017-01-21T05:07:50.945Z,3.9
2017-01-21T05:08:50.959Z,3.88
2017-01-21T05:09:50.976Z,3.86
2017-01-21T05:11:05.909Z,3.9
2017-01-21T05:11:51.011Z,3.88
2017-01-21T05:12:51.025Z,3.86
2017-01-21T05:13:51.044Z,3.9
2017-01-21T05:15:51.075Z,4.04
2017-01-21T05:16:51.096Z,4.04
2017-01-21T05:17:51.107Z,3.98
2017-01-21T05:18:51.127Z,3.88
2017-01-21T05:21:06.075Z,3.9
2017-01-21T05:22:06.091Z,3.9
2017-01-21T05:22:51.191Z,3.79
2017-01-21T05:23:51.205Z,3.88
2017-01-21T05:24:51.223Z,3.86
2017-01-21T05:25:51.238Z,3.9
2017-01-21T05:27:06.171Z,3.93
2017-01-21T05:27:51.274Z,3.94
2017-01-21T05:28:51.286Z,3.96
2017-01-21T05:29:51.305Z,3.91
2017-01-21T05:30:51.323Z,3.98
2017-01-21T05:31:51.333Z,3.9
2017-01-21T05:33:51.370Z,3.94
2017-01-21T05:35:06.305Z,3.88
2017-01-21T05:35:51.402Z,3.91
2017-01-21T05:36:51.416Z,3.87
2017-01-21T05:37:51.432Z,3.87
2017-01-21T05:38:51.454Z,3.87
2017-01-21T05:39:51.466Z,3.9
2017-01-21T05:40:51.484Z,3.93
2017-01-21T05:41:51.500Z,3.88
2017-01-21T05:43:06.433Z,3.84
2017-01-21T05:43:51.533Z,3.79
2017-01-21T05:44:51.549Z,3.88
2017-01-21T05:45:51.566Z,3.91
2017-01-21T05:46:51.586Z,3.84
2017-01-21T05:47:51.598Z,3.8
2017-01-21T05:48:51.617Z,3.83
2017-01-21T05:49:51.629Z,3.91
2017-01-21T05:51:51.665Z,3.84
2017-01-21T05:52:51.678Z,3.83
2017-01-21T05:53:51.699Z,3.8
2017-01-21T05:54:51.712Z,3.83
2017-01-21T05:55:51.739Z,3.91
2017-01-21T05:56:51.748Z,3.93
2017-01-21T05:58:06.683Z,3.9
2017-01-21T05:58:51.779Z,3.97
2017-01-21T05:59:51.794Z,3.91
2017-01-21T06:00:51.815Z,3.9
2017-01-21T06:01:51.829Z,3.91
2017-01-21T06:03:51.859Z,3.9
2017-01-21T06:04:51.877Z,3.91
2017-01-21T06:05:51.895Z,3.96
2017-01-21T06:06:51.909Z,4.06
2017-01-21T06:08:06.845Z,3.9
2017-01-21T06:08:51.945Z,3.88
2017-01-21T06:09:51.970Z,3.91
2017-01-21T06:11:06.892Z,3.91
2017-01-21T06:11:51.999Z,3.88
2017-01-21T06:12:52.010Z,3.91
2017-01-21T06:13:52.024Z,3.87
2017-01-21T06:14:52.041Z,3.93
2017-01-21T06:15:52.061Z,3.88
2017-01-21T06:16:52.076Z,3.87
2017-01-21T06:17:52.087Z,3.91
2017-01-21T06:18:52.107Z,3.96
2017-01-21T06:21:52.156Z,3.91
2017-01-21T06:22:52.172Z,3.93
2017-01-21T06:24:07.107Z,3.86
2017-01-21T06:24:52.207Z,3.84
2017-01-21T06:25:52.222Z,3.88
2017-01-21T06:26:52.241Z,3.91
2017-01-21T06:27:52.253Z,3.91
2017-01-21T06:28:52.271Z,3.93
2017-01-21T06:30:07.205Z,3.87
2017-01-21T06:30:52.304Z,3.83
2017-01-21T06:31:52.318Z,3.84
2017-01-21T06:32:52.335Z,3.79
2017-01-21T06:33:52.378Z,3.79
2017-01-21T06:34:52.367Z,3.83
2017-01-21T06:35:52.388Z,3.86
2017-01-21T06:36:52.399Z,3.78
2017-01-21T06:37:52.418Z,3.86
2017-01-21T06:38:52.432Z,3.83
2017-01-21T06:39:52.452Z,3.87
2017-01-21T06:40:52.466Z,3.9
2017-01-21T06:41:52.490Z,3.96
2017-01-21T06:42:52.499Z,3.88
2017-01-21T06:43:52.515Z,3.84
2017-01-21T06:44:52.531Z,3.84
2017-01-21T06:46:07.466Z,3.83
2017-01-21T06:46:52.565Z,3.8
2017-01-21T06:47:52.613Z,3.79
2017-01-21T06:48:52.598Z,3.87
2017-01-21T06:49:52.614Z,3.83
2017-01-21T06:50:52.627Z,3.84
2017-01-21T06:52:52.660Z,3.83
2017-01-21T06:53:52.679Z,3.8
2017-01-21T06:54:52.697Z,3.76
2017-01-21T06:55:52.723Z,3.9
2017-01-21T06:56:52.726Z,3.84
2017-01-21T06:57:52.744Z,3.78
2017-01-21T06:58:52.762Z,3.79
2017-01-21T06:59:52.775Z,3.9
2017-01-21T07:00:52.798Z,3.88
2017-01-21T07:02:07.730Z,3.79
2017-01-21T07:02:52.825Z,3.84
2017-01-21T07:03:52.840Z,3.84
2017-01-21T07:05:52.872Z,3.79
2017-01-21T07:06:52.892Z,3.87
2017-01-21T07:08:52.948Z,3.76
2017-01-21T07:09:52.939Z,3.84
2017-01-21T07:11:07.877Z,3.79
2017-01-21T07:11:52.973Z,3.87
2017-01-21T07:12:52.993Z,3.87
2017-01-21T07:13:53.007Z,3.94
2017-01-21T07:14:53.029Z,3.91
2017-01-21T07:15:53.039Z,3.76
2017-01-21T07:16:53.055Z,3.91
2017-01-21T07:18:07.990Z,3.84
2017-01-21T07:18:53.086Z,3.87
2017-01-21T07:19:53.498Z,3.91
2017-01-21T07:20:53.122Z,3.93
2017-01-21T07:21:53.134Z,3.94
2017-01-21T07:22:53.157Z,4
2017-01-21T07:23:53.168Z,4.02
2017-01-21T07:24:53.188Z,3.91
2017-01-21T07:25:53.200Z,3.93
2017-01-21T07:26:53.219Z,3.86
2017-01-21T07:27:53.233Z,3.91
2017-01-21T07:29:08.169Z,3.9
2017-01-21T07:29:53.266Z,3.88
2017-01-21T07:30:53.288Z,4
2017-01-21T07:31:53.301Z,3.87
2017-01-21T07:33:08.236Z,3.84
2017-01-21T07:33:53.336Z,3.9
2017-01-21T07:34:53.350Z,3.9
2017-01-21T07:35:53.369Z,3.94
2017-01-21T07:36:53.383Z,3.88
2017-01-21T07:37:53.402Z,3.98
2017-01-21T07:38:53.415Z,4
2017-01-21T07:39:53.432Z,4
2017-01-21T07:40:53.448Z,4
2017-01-21T07:41:53.466Z,4
2017-01-21T07:42:53.484Z,4.05
2017-01-21T07:43:53.498Z,4.08
2017-01-21T07:44:53.514Z,4.04
2017-01-21T07:45:53.532Z,3.94
2017-01-21T07:46:53.549Z,4.02
2017-01-21T07:47:53.565Z,4.05
2017-01-21T07:48:53.581Z,4.12
2017-01-21T07:49:53.599Z,4.18
2017-01-21T07:50:53.614Z,4.11
2017-01-21T07:51:53.628Z,4.05
2017-01-21T07:52:53.646Z,4.15
2017-01-21T07:53:53.664Z,3.97
2017-01-21T07:54:53.683Z,4.05
2017-01-21T07:55:53.700Z,4.08
2017-01-21T07:56:53.712Z,4.11
2017-01-21T07:57:53.728Z,4.16
2017-01-21T07:58:53.746Z,4.23
2017-01-21T08:00:08.679Z,4.14
2017-01-21T08:00:53.778Z,4.22
2017-01-21T08:01:53.792Z,4.15
2017-01-21T08:02:53.810Z,4.16
2017-01-21T08:03:53.827Z,4.12
2017-01-21T08:05:08.760Z,4.15
2017-01-21T08:05:53.857Z,4.26
2017-01-21T08:06:53.875Z,4.16
2017-01-21T08:07:53.889Z,4.2
2017-01-21T08:08:53.908Z,4.22
2017-01-21T08:10:53.939Z,4.2
2017-01-21T08:11:53.959Z,4.09
2017-01-21T08:13:53.994Z,4.15
2017-01-21T08:14:54.005Z,4.18
2017-01-21T08:16:08.940Z,4.2
2017-01-21T08:16:54.040Z,4.2
2017-01-21T08:17:54.055Z,4.24
2017-01-21T08:18:54.071Z,4.23
2017-01-21T08:19:54.087Z,4.22
2017-01-21T08:21:09.022Z,4.2
2017-01-21T08:21:54.126Z,4.22
2017-01-21T08:22:54.138Z,4.34
2017-01-21T08:23:54.153Z,4.23
2017-01-21T08:24:54.170Z,4.09
2017-01-21T08:25:54.187Z,4.09
2017-01-21T08:26:54.213Z,4.23
2017-01-21T08:27:54.217Z,4.24
2017-01-21T08:28:54.236Z,4.23
2017-01-21T08:29:54.254Z,4.23
2017-01-21T08:30:54.269Z,4.27
2017-01-21T08:32:09.203Z,4.33
2017-01-21T08:32:54.307Z,4.36
2017-01-21T08:33:54.323Z,4.4
2017-01-21T08:34:54.336Z,4.3
2017-01-21T08:35:54.351Z,4.33
2017-01-21T08:37:09.286Z,4.36
2017-01-21T08:37:54.387Z,4.3
2017-01-21T08:38:54.403Z,4.37
2017-01-21T08:39:54.417Z,4.37
2017-01-21T08:40:54.434Z,4.22
2017-01-21T08:41:54.450Z,4.2
2017-01-21T08:42:54.470Z,4.26
2017-01-21T08:43:54.494Z,4.29
2017-01-21T08:44:54.500Z,4.34
2017-01-21T08:45:54.517Z,4.3
2017-01-21T08:46:54.534Z,4.24
2017-01-21T08:48:09.472Z,4.11
2017-01-21T08:49:09.485Z,4.23
2017-01-21T08:49:54.586Z,4.24
2017-01-21T08:50:54.600Z,4.24
2017-01-21T08:51:54.617Z,4.3
2017-01-21T08:53:09.556Z,4.34
2017-01-21T08:53:54.654Z,4.4
2017-01-21T08:54:54.668Z,4.4
2017-01-21T08:55:54.685Z,4.48
2017-01-21T08:56:54.723Z,4.41
2017-01-21T08:57:54.723Z,4.48
2017-01-21T08:58:54.736Z,4.51
2017-01-21T08:59:54.748Z,4.47
2017-01-21T09:00:54.766Z,4.47
2017-01-21T09:01:54.783Z,4.48
2017-01-21T09:02:54.799Z,4.45
2017-01-21T09:04:09.736Z,4.5
2017-01-21T09:04:54.834Z,4.44
2017-01-21T09:05:54.852Z,4.47
2017-01-21T09:06:54.868Z,4.55
2017-01-21T09:08:09.803Z,4.45
2017-01-21T09:08:54.902Z,4.5
2017-01-21T09:09:54.920Z,4.6
2017-01-21T09:11:09.879Z,4.45
2017-01-21T09:11:54.956Z,4.54
2017-01-21T09:12:54.970Z,4.59
2017-01-21T09:14:55.002Z,4.54
2017-01-21T09:15:55.021Z,4.72
2017-01-21T09:16:55.038Z,4.7
2017-01-21T09:17:55.052Z,4.69
2017-01-21T09:18:55.074Z,4.62
2017-01-21T09:19:55.088Z,4.67
2017-01-21T09:20:55.105Z,4.73
2017-01-21T09:21:55.120Z,4.77
2017-01-21T09:22:55.141Z,4.65
2017-01-21T09:23:55.157Z,4.77
2017-01-21T09:24:55.174Z,4.72
2017-01-21T09:25:55.187Z,4.75
2017-01-21T09:26:55.204Z,4.85
2017-01-21T09:27:55.224Z,4.73
2017-01-21T09:28:55.242Z,4.84
2017-01-21T09:31:55.290Z,4.8
2017-01-21T09:32:55.309Z,4.72
2017-01-21T09:33:55.321Z,4.69
2017-01-21T09:34:55.341Z,4.85
2017-01-21T09:36:10.274Z,4.73
2017-01-21T09:36:55.759Z,4.75
2017-01-21T09:37:55.391Z,4.73
2017-01-21T09:38:55.404Z,4.69
2017-01-21T09:40:10.343Z,4.66
2017-01-21T09:40:55.439Z,4.84
2017-01-21T09:41:55.466Z,4.69
2017-01-21T09:42:55.474Z,4.84
2017-01-21T09:43:55.490Z,4.86
2017-01-21T09:44:55.506Z,4.86
2017-01-21T09:45:55.532Z,4.69
2017-01-21T09:46:55.540Z,4.82
2017-01-21T09:48:10.479Z,4.8
2017-01-21T09:48:55.578Z,4.73
2017-01-21T09:49:55.595Z,4.77
2017-01-21T09:51:10.528Z,4.77
2017-01-21T09:51:55.679Z,4.78
2017-01-21T09:52:55.646Z,4.78
2017-01-21T09:53:55.659Z,4.72
2017-01-21T09:54:55.675Z,4.73
2017-01-21T09:56:10.611Z,4.73
2017-01-21T09:56:55.710Z,4.85
2017-01-21T09:57:55.724Z,4.84
2017-01-21T09:58:55.747Z,4.89
2017-01-21T09:59:55.765Z,4.86
2017-01-21T10:00:55.781Z,4.88
2017-01-21T10:01:55.795Z,4.92
2017-01-21T10:02:55.813Z,4.97
2017-01-21T10:03:55.831Z,4.88
2017-01-21T10:05:10.767Z,4.94
2017-01-21T10:06:10.782Z,4.91
2017-01-21T10:06:55.879Z,4.85
2017-01-21T10:07:55.897Z,4.86
2017-01-21T10:08:55.913Z,4.91
2017-01-21T10:09:55.932Z,4.96
2017-01-21T10:10:55.951Z,4.92
2017-01-21T10:12:10.883Z,4.88
2017-01-21T10:12:55.981Z,4.91
2017-01-21T10:13:56.000Z,4.94
2017-01-21T10:14:56.016Z,4.88
2017-01-21T10:16:56.050Z,4.88
2017-01-21T10:18:56.090Z,4.97
2017-01-21T10:19:56.100Z,4.94
2017-01-21T10:20:56.117Z,4.97
2017-01-21T10:21:56.137Z,5.02
2017-01-21T10:22:56.152Z,5.03
2017-01-21T10:23:56.172Z,4.99
2017-01-21T10:24:56.187Z,4.97
2017-01-21T10:25:56.204Z,5.04
2017-01-21T10:26:56.227Z,5.07
2017-01-21T10:28:11.158Z,5.09
2017-01-21T10:28:56.255Z,5.13
2017-01-21T10:29:56.276Z,5.1
2017-01-21T10:30:56.293Z,5.1
2017-01-21T10:31:56.306Z,5.15
2017-01-21T10:32:56.329Z,5.1
2017-01-21T10:33:56.341Z,5.15
2017-01-21T10:34:56.361Z,5.1
2017-01-21T10:35:56.384Z,5.1
2017-01-21T10:36:56.420Z,5.13
2017-01-21T10:37:56.411Z,5.1
2017-01-21T10:38:56.436Z,5.04
2017-01-21T10:40:11.365Z,5.13
2017-01-21T10:40:56.465Z,5.09
2017-01-21T10:41:56.483Z,5.07
2017-01-21T10:43:11.418Z,5.1
2017-01-21T10:43:56.519Z,5.1
2017-01-21T10:44:56.535Z,5.1
2017-01-21T10:45:56.552Z,4.97
2017-01-21T10:46:56.570Z,4.97
2017-01-21T10:47:56.589Z,4.94
2017-01-21T10:48:56.603Z,4.88
2017-01-21T10:49:56.624Z,5.07
2017-01-21T10:50:56.641Z,5
2017-01-21T10:51:56.656Z,5.03
2017-01-21T10:52:56.673Z,5.1
2017-01-21T10:54:11.611Z,5.13
2017-01-21T10:54:56.715Z,5.12
2017-01-21T10:56:11.644Z,5.1
2017-01-21T10:56:56.743Z,5.12
2017-01-21T10:57:56.761Z,5.1
2017-01-21T10:58:56.783Z,5.28
2017-01-21T10:59:56.799Z,5.27
2017-01-21T11:00:56.812Z,5.28
2017-01-21T11:01:56.832Z,5.35
2017-01-21T11:02:56.847Z,5.31
2017-01-21T11:03:56.864Z,5.28
2017-01-21T11:06:56.919Z,5.28
2017-01-21T11:07:56.936Z,5.33
2017-01-21T11:09:11.875Z,5.15
2017-01-21T11:09:56.977Z,5.1
2017-01-21T11:11:11.907Z,5.13
2017-01-21T11:11:57.007Z,5.24
2017-01-21T11:12:57.026Z,5.28
2017-01-21T11:14:12.357Z,5.27
2017-01-21T11:15:11.980Z,5.18
2017-01-21T11:15:57.475Z,5.2
2017-01-21T11:16:57.099Z,5.31
2017-01-21T11:17:57.115Z,5.27
2017-01-21T11:18:57.133Z,5.33
2017-01-21T11:19:57.200Z,5.33
2017-01-21T11:20:57.171Z,5.38
2017-01-21T11:21:57.573Z,5.43
2017-01-21T11:22:57.206Z,5.45
2017-01-21T11:23:57.228Z,5.4
2017-01-21T11:24:57.253Z,5.39
2017-01-21T11:25:57.257Z,5.3
2017-01-21T11:26:57.281Z,5.48
2017-01-21T11:27:57.296Z,5.38
2017-01-21T11:28:57.308Z,5.57
2017-01-21T11:30:12.256Z,5.51
2017-01-21T11:31:12.263Z,5.45
2017-01-21T11:32:57.401Z,5.54
2017-01-21T11:33:57.790Z,5.48
2017-01-21T11:34:57.413Z,5.57
2017-01-21T11:35:57.432Z,5.49
2017-01-21T11:36:57.448Z,5.58
2017-01-21T11:37:57.470Z,5.49
2017-01-21T11:38:57.487Z,5.6
2017-01-21T11:40:12.424Z,5.57
2017-01-21T11:40:57.524Z,5.56
2017-01-21T11:41:57.542Z,5.61
2017-01-21T11:42:57.586Z,5.61
2017-01-21T11:43:57.578Z,5.54
2017-01-21T11:44:57.591Z,5.56
2017-01-21T11:45:58.019Z,5.51
2017-01-21T11:47:12.545Z,5.56
2017-01-21T11:47:57.646Z,5.49
2017-01-21T11:48:57.663Z,5.56
2017-01-21T11:50:57.697Z,5.54
2017-01-21T11:52:57.738Z,5.71
2017-01-21T11:53:57.774Z,5.61
2017-01-21T11:54:57.772Z,5.63
2017-01-21T11:55:57.797Z,5.61
2017-01-21T11:57:12.725Z,5.65
2017-01-21T11:57:57.827Z,5.54
2017-01-21T11:58:57.841Z,5.51
2017-01-21T11:59:58.270Z,5.49
2017-01-21T12:00:57.876Z,5.49
2017-01-21T12:01:57.895Z,5.49
2017-01-21T12:03:12.831Z,5.51
2017-01-21T12:03:57.957Z,5.58
2017-01-21T12:04:57.947Z,5.49
2017-01-21T12:05:57.976Z,5.49
2017-01-21T12:08:58.018Z,5.46
2017-01-21T12:09:58.042Z,5.53
2017-01-21T12:10:58.056Z,5.53
2017-01-21T12:11:58.071Z,5.61
2017-01-21T12:12:58.089Z,5.6
2017-01-21T12:13:58.110Z,5.6
2017-01-21T12:14:58.430Z,5.61
2017-01-21T12:15:58.162Z,5.53
2017-01-21T12:16:58.163Z,5.6
2017-01-21T12:18:13.100Z,5.54
2017-01-21T12:18:58.200Z,5.65
2017-01-21T12:19:58.217Z,5.6
2017-01-21T12:20:58.240Z,5.51
2017-01-21T12:21:58.252Z,5.56
2017-01-21T12:22:58.273Z,5.48
2017-01-21T12:23:58.289Z,5.51
2017-01-21T12:24:58.308Z,5.49
2017-01-21T12:25:58.327Z,5.53
2017-01-21T12:26:58.365Z,5.49
2017-01-21T12:28:13.278Z,5.51
2017-01-21T12:28:58.375Z,5.57
2017-01-21T12:30:13.313Z,5.48
2017-01-21T12:31:13.330Z,5.43
2017-01-21T12:31:58.433Z,5.48
2017-01-21T12:32:58.452Z,5.56
2017-01-21T12:33:58.469Z,5.56
2017-01-21T12:34:58.482Z,5.57
2017-01-21T12:35:58.505Z,5.64
2017-01-21T12:36:58.520Z,5.54
2017-01-21T12:37:58.538Z,5.51
2017-01-21T12:38:58.557Z,5.49
2017-01-21T12:39:58.573Z,5.43
2017-01-21T12:40:58.592Z,5.54
2017-01-21T12:41:58.609Z,5.53
2017-01-21T12:42:58.628Z,5.61
2017-01-21T12:43:58.649Z,5.68
2017-01-21T12:44:58.669Z,5.67
2017-01-21T12:46:13.599Z,5.74
2017-01-21T12:46:59.089Z,5.79
2017-01-21T12:47:58.719Z,5.71
2017-01-21T12:48:58.737Z,5.67
2017-01-21T12:50:13.671Z,5.75
2017-01-21T12:50:58.769Z,5.74
2017-01-21T12:51:58.790Z,5.65
2017-01-21T12:52:58.804Z,5.72
2017-01-21T12:53:58.823Z,5.74
2017-01-21T12:54:58.842Z,5.61
2017-01-21T12:55:58.863Z,5.67
2017-01-21T12:56:58.880Z,5.65
2017-01-21T12:58:58.914Z,5.68
2017-01-21T12:59:58.934Z,5.76
2017-01-21T13:00:58.947Z,5.74
2017-01-21T13:01:58.968Z,5.72
2017-01-21T13:02:59.285Z,5.76
2017-01-21T13:03:59.002Z,5.74
2017-01-21T13:04:59.024Z,5.76
2017-01-21T13:06:13.958Z,5.71
2017-01-21T13:06:59.057Z,5.68
2017-01-21T13:07:59.075Z,5.71
2017-01-21T13:08:59.092Z,5.72
2017-01-21T13:09:59.112Z,5.65
2017-01-21T13:10:59.128Z,5.74
2017-01-21T13:11:59.145Z,5.74
2017-01-21T13:12:59.168Z,5.71
2017-01-21T13:13:59.181Z,5.65
2017-01-21T13:14:59.299Z,5.71
2017-01-21T13:15:59.216Z,5.65
2017-01-21T13:16:59.235Z,5.65
2017-01-21T13:17:59.640Z,5.53
2017-01-21T13:18:59.272Z,5.53
2017-01-21T13:19:59.290Z,5.46
2017-01-21T13:20:59.306Z,5.42
2017-01-21T13:22:14.242Z,5.4
2017-01-21T13:22:59.345Z,5.56
2017-01-21T13:23:59.361Z,5.48
2017-01-21T13:24:59.375Z,5.45
2017-01-21T13:25:59.403Z,5.56
2017-01-21T13:26:59.411Z,5.48
2017-01-21T13:27:59.439Z,5.53
2017-01-21T13:28:59.449Z,5.49
2017-01-21T13:29:59.464Z,5.58
2017-01-21T13:31:14.404Z,5.45
2017-01-21T13:31:59.505Z,5.46
2017-01-21T13:32:59.516Z,5.39
2017-01-21T13:33:59.931Z,5.45
2017-01-21T13:34:59.557Z,5.39
2017-01-21T13:35:59.577Z,5.43
2017-01-21T13:36:59.592Z,5.45
2017-01-21T13:38:14.525Z,5.36
2017-01-21T13:38:59.627Z,5.36
2017-01-21T13:39:59.646Z,5.28
2017-01-21T13:40:59.662Z,5.33
2017-01-21T13:41:59.682Z,5.42
2017-01-21T13:42:59.694Z,5.38
2017-01-21T13:43:59.713Z,5.35
2017-01-21T13:46:59.767Z,5.3
2017-01-21T13:47:59.783Z,5.27
2017-01-21T13:48:59.827Z,5.33
2017-01-21T13:49:59.822Z,5.28
2017-01-21T13:50:59.838Z,5.22
2017-01-21T13:51:59.859Z,5.22
2017-01-21T13:53:14.791Z,5.2
2017-01-21T13:53:59.893Z,5.15
2017-01-21T13:54:59.910Z,5.12
2017-01-21T13:55:59.929Z,5.15
2017-01-21T13:57:59.961Z,5.2
2017-01-21T13:59:59.996Z,5.17
2017-01-21T14:01:00.020Z,5.22
2017-01-21T14:02:00.039Z,5.3
2017-01-21T14:03:00.053Z,5.36
2017-01-21T14:04:00.103Z,5.24
2017-01-21T14:05:15.004Z,5.25
2017-01-21T14:06:15.021Z,5.17
2017-01-21T14:07:00.121Z,5.21
2017-01-21T14:08:00.138Z,5.17
2017-01-21T14:09:00.160Z,5.24
2017-01-21T14:10:00.173Z,5.22
2017-01-21T14:11:00.193Z,5.28
2017-01-21T14:12:00.242Z,5.2
2017-01-21T14:13:00.225Z,5.2
2017-01-21T14:14:00.243Z,5.13
2017-01-21T14:16:00.284Z,5.13
2017-01-21T14:17:00.297Z,5.22
2017-01-21T14:18:00.313Z,5.21
2017-01-21T14:19:15.251Z,5.2
2017-01-21T14:20:15.269Z,5.15
2017-01-21T14:21:00.375Z,5.15